BCCM7: Buffalo Creek near Tiff City, MO

Data processed at Fri May 24 2019 23:50


All information presented herein is the property of the government of the United States of America and may be revised or deleted at any time without prior notice.
Dissemination of this information without the expressed written consent of the Public Affairs Office, Tulsa District U.S. Army Corps of Engineers is strictly prohibited.
These data are gathered electronically and, as presented, have not undergone any form of quality control. These data are not guaranteed to be valid or correct.
Go to home page.
Go to station list.
Go to home page.

Downstream station:


Previous Day
Next Day
Current Day
    
SHEF ID:       BCCM7     Buffalo Creek at Tiff City, MO
STATION TYPE:  

               PRECIP     STAGE  RIV-FLOW   VOLTAGE
                   in        ft       cfs      volt
              Ccp-Rev   Ccp-Rev   Ccp-Rev   Ccp-Rev
(US/Central)
05/24 00:00      0.10      5.72      1126     12.47
05/24 01:00      0.00      5.66      1082     12.47
05/24 02:00      0.00      5.60      1040     12.47
05/24 03:00      0.00      5.51       979     12.47
05/24 04:00      0.00      5.39       900     12.47
05/24 05:00      0.00      5.25       812     12.47
05/24 06:00      0.00      5.24       806     12.47
05/24 07:00      0.00      5.26       819     12.47
05/24 08:00      0.00      5.27       825     12.47
05/24 09:00      0.00      5.22       793     13.17
05/24 10:00      0.00      5.09       715     13.41
05/24 11:00      0.00      4.93       626     13.41
05/24 12:00      0.00      4.98       653     13.41
05/24 13:00      0.00      5.04       686     13.41
05/24 14:00      0.00      4.97       647     12.94
05/24 15:00      0.00      4.91       615     12.94
05/24 16:00      0.00      4.85       584     12.94
05/24 17:00      0.00      4.84       579     12.94
05/24 18:00      0.00      4.81       564     12.71
05/24 19:00      0.00      4.76       539     12.71
05/24 20:00      0.00      4.74       529     12.71
05/24 21:00      0.10      4.73       524     12.47
05/24 22:00      0.00      4.72       520     12.47
05/24 23:00      0.00      4.68       500     12.47